Terminal Aerodrome Forecast
Issued by NWS

Home | Current Version | Previous Version | Text Only | Print | Product List | Glossary On
Versions: 1 2 3 4 5 6 7 8 9 10 11 12 13
000
FTUS42 TJSJ 190400 AAA
TAFJPS
TAF AMD
TJPS 190406Z 1904/1924 06005KT P6SM VCTS SCT025CB BKN060
      TEMPO 1904/1906 -TSRA SCT025CB BKN050
     FM191500 13012KT P6SM VCSH FEW030
     FM192330 09007KT P6SM FEW030 SCT060=

USA.gov is the U.S. government's official web portal to all federal, state and local government web resources and services.